Back to top

Casper, WY weather

Natrona County International Airport, Casper, WY: 6/27/2022 19:53
Visibility10 statute milesclear sky
View 7-Day Forecast
Area Summary
Sky/CloudsSky Clear
Weather [last 24 hours]None
Pressure30.21 in.Hg (1023 hPa)
Dew Point37 °F (2.8 °C)
Relative Humidity22.1 %
Temperature79 °F (26.1 °C)red thermometer
Reading TimeMinimum to Maximum Temperature
6-hr ending 6/27@17:5379 °F to 89.1 °F (26.1 °C to 31.7 °C)
6-hr ending 6/27@11:5341 °F to 82 °F (5 °C to 27.8 °C)
6-hr ending 6/27@05:5339 °F to 55 °F (3.9 °C to 12.8 °C)
6-hr ending 6/26@23:5355 °F to 73.9 °F (12.8 °C to 23.3 °C)
24-hr ending 6/27@00:5339.9 °F to 78.1 °F (4.4 °C to 25.6 °C)
Wind12.7 MPH (11 KT) green arrow pointing at 22.5 degrees
Wind FromNorth/Northeast (020 Degrees)
Twilight Begins04:55Sunshine Yesterday
Sunrise05:30N/A
Sunset20:48
Twilight Ends21:23
METARKCPR 280153Z 02011KT 10SM CLR 26/03 A3021 RMK AO2 SLP165 T02610028
Tags: